sensor_id;sensor_type;location;lat;lon;timestamp;P1;durP1;ratioP1;P2;durP2;ratioP2
52918;SDS011;38793;52.690;6.812;2023-04-06T00:00:48;7.83;;;5.50;;
52918;SDS011;38793;52.690;6.812;2023-04-06T00:03:14;4.97;;;4.47;;
52918;SDS011;38793;52.690;6.812;2023-04-06T00:05:40;5.30;;;4.90;;
52918;SDS011;38793;52.690;6.812;2023-04-06T00:08:06;6.55;;;5.00;;
52918;SDS011;38793;52.690;6.812;2023-04-06T00:10:32;7.70;;;5.75;;
52918;SDS011;38793;52.690;6.812;2023-04-06T00:12:58;10.50;;;5.77;;
52918;SDS011;38793;52.690;6.812;2023-04-06T00:15:25;6.88;;;5.30;;
52918;SDS011;38793;52.690;6.812;2023-04-06T00:17:51;6.32;;;4.78;;
52918;SDS011;38793;52.690;6.812;2023-04-06T00:20:16;5.37;;;4.67;;
52918;SDS011;38793;52.690;6.812;2023-04-06T00:22:43;6.57;;;5.18;;
52918;SDS011;38793;52.690;6.812;2023-04-06T00:25:09;7.65;;;6.10;;
52918;SDS011;38793;52.690;6.812;2023-04-06T00:27:35;7.65;;;5.40;;
52918;SDS011;38793;52.690;6.812;2023-04-06T00:30:02;5.80;;;5.18;;
52918;SDS011;38793;52.690;6.812;2023-04-06T00:32:31;5.63;;;5.07;;
52918;SDS011;38793;52.690;6.812;2023-04-06T00:34:57;9.73;;;6.73;;
52918;SDS011;38793;52.690;6.812;2023-04-06T00:37:23;8.65;;;4.85;;
52918;SDS011;38793;52.690;6.812;2023-04-06T00:39:49;7.47;;;6.43;;
52918;SDS011;38793;52.690;6.812;2023-04-06T00:42:16;6.40;;;5.75;;
52918;SDS011;38793;52.690;6.812;2023-04-06T00:44:50;7.53;;;5.60;;
52918;SDS011;38793;52.690;6.812;2023-04-06T00:47:16;7.50;;;5.47;;
52918;SDS011;38793;52.690;6.812;2023-04-06T00:49:42;7.03;;;4.70;;
52918;SDS011;38793;52.690;6.812;2023-04-06T00:52:08;6.27;;;5.53;;
52918;SDS011;38793;52.690;6.812;2023-04-06T00:54:33;6.82;;;5.88;;
52918;SDS011;38793;52.690;6.812;2023-04-06T00:56:59;5.70;;;5.07;;
52918;SDS011;38793;52.690;6.812;2023-04-06T00:59:25;6.63;;;5.63;;
52918;SDS011;38793;52.690;6.812;2023-04-06T01:01:52;9.90;;;6.68;;
52918;SDS011;38793;52.690;6.812;2023-04-06T01:04:18;6.17;;;5.40;;
52918;SDS011;38793;52.690;6.812;2023-04-06T01:06:44;7.03;;;5.17;;
52918;SDS011;38793;52.690;6.812;2023-04-06T01:11:36;4.50;;;4.00;;
52918;SDS011;38793;52.690;6.812;2023-04-06T01:14:01;5.10;;;4.70;;
52918;SDS011;38793;52.690;6.812;2023-04-06T01:18:53;7.10;;;5.25;;
52918;SDS011;38793;52.690;6.812;2023-04-06T01:21:19;5.87;;;5.23;;
52918;SDS011;38793;52.690;6.812;2023-04-06T01:23:45;6.82;;;5.88;;
52918;SDS011;38793;52.690;6.812;2023-04-06T01:26:13;5.93;;;5.00;;
52918;SDS011;38793;52.690;6.812;2023-04-06T01:28:39;6.83;;;5.80;;
52918;SDS011;38793;52.690;6.812;2023-04-06T01:31:06;8.40;;;5.70;;
52918;SDS011;38793;52.690;6.812;2023-04-06T01:33:32;6.70;;;6.07;;
52918;SDS011;38793;52.690;6.812;2023-04-06T01:35:58;10.23;;;5.50;;
52918;SDS011;38793;52.690;6.812;2023-04-06T01:38:24;6.55;;;5.45;;
52918;SDS011;38793;52.690;6.812;2023-04-06T01:40:51;6.60;;;5.70;;
52918;SDS011;38793;52.690;6.812;2023-04-06T01:43:17;8.32;;;6.00;;
52918;SDS011;38793;52.690;6.812;2023-04-06T01:45:42;6.53;;;5.67;;
52918;SDS011;38793;52.690;6.812;2023-04-06T01:48:08;7.53;;;5.93;;
52918;SDS011;38793;52.690;6.812;2023-04-06T01:50:33;6.23;;;5.67;;
52918;SDS011;38793;52.690;6.812;2023-04-06T01:52:59;8.07;;;6.83;;
52918;SDS011;38793;52.690;6.812;2023-04-06T01:55:25;9.13;;;5.55;;
52918;SDS011;38793;52.690;6.812;2023-04-06T01:57:51;9.33;;;5.47;;
52918;SDS011;38793;52.690;6.812;2023-04-06T02:00:16;7.83;;;5.30;;
52918;SDS011;38793;52.690;6.812;2023-04-06T02:02:42;8.23;;;5.80;;
52918;SDS011;38793;52.690;6.812;2023-04-06T02:05:08;7.50;;;6.00;;
52918;SDS011;38793;52.690;6.812;2023-04-06T02:07:33;7.80;;;4.78;;
52918;SDS011;38793;52.690;6.812;2023-04-06T02:09:59;8.87;;;6.17;;
52918;SDS011;38793;52.690;6.812;2023-04-06T02:12:24;7.63;;;5.53;;
52918;SDS011;38793;52.690;6.812;2023-04-06T02:14:50;6.10;;;5.00;;
52918;SDS011;38793;52.690;6.812;2023-04-06T02:17:16;8.18;;;6.00;;
52918;SDS011;38793;52.690;6.812;2023-04-06T02:19:42;10.90;;;6.43;;
52918;SDS011;38793;52.690;6.812;2023-04-06T02:22:08;6.60;;;5.00;;
52918;SDS011;38793;52.690;6.812;2023-04-06T02:24:34;6.93;;;6.00;;
52918;SDS011;38793;52.690;6.812;2023-04-06T02:27:00;9.15;;;5.75;;
52918;SDS011;38793;52.690;6.812;2023-04-06T02:29:26;7.27;;;5.13;;
52918;SDS011;38793;52.690;6.812;2023-04-06T02:31:51;6.57;;;5.80;;
52918;SDS011;38793;52.690;6.812;2023-04-06T02:34:17;11.03;;;6.83;;
52918;SDS011;38793;52.690;6.812;2023-04-06T02:36:44;10.57;;;5.80;;
52918;SDS011;38793;52.690;6.812;2023-04-06T02:39:10;7.45;;;6.38;;
52918;SDS011;38793;52.690;6.812;2023-04-06T02:41:36;7.18;;;6.45;;
52918;SDS011;38793;52.690;6.812;2023-04-06T02:44:02;10.27;;;5.87;;
52918;SDS011;38793;52.690;6.812;2023-04-06T02:46:28;8.77;;;6.60;;
52918;SDS011;38793;52.690;6.812;2023-04-06T02:48:54;8.03;;;5.90;;
52918;SDS011;38793;52.690;6.812;2023-04-06T02:51:20;8.13;;;6.22;;
52918;SDS011;38793;52.690;6.812;2023-04-06T02:53:45;9.02;;;7.40;;
52918;SDS011;38793;52.690;6.812;2023-04-06T02:56:11;9.13;;;6.60;;
52918;SDS011;38793;52.690;6.812;2023-04-06T02:58:37;12.47;;;7.43;;
52918;SDS011;38793;52.690;6.812;2023-04-06T03:01:03;7.77;;;6.53;;
52918;SDS011;38793;52.690;6.812;2023-04-06T03:03:29;11.43;;;7.18;;
52918;SDS011;38793;52.690;6.812;2023-04-06T03:05:55;10.93;;;7.80;;
52918;SDS011;38793;52.690;6.812;2023-04-06T03:08:23;7.07;;;6.32;;
52918;SDS011;38793;52.690;6.812;2023-04-06T03:10:49;13.38;;;7.63;;
52918;SDS011;38793;52.690;6.812;2023-04-06T03:13:15;8.88;;;6.85;;
52918;SDS011;38793;52.690;6.812;2023-04-06T03:15:41;9.33;;;7.03;;
52918;SDS011;38793;52.690;6.812;2023-04-06T03:18:06;8.93;;;6.47;;
52918;SDS011;38793;52.690;6.812;2023-04-06T03:20:32;8.57;;;7.07;;
52918;SDS011;38793;52.690;6.812;2023-04-06T03:22:58;8.97;;;8.07;;
52918;SDS011;38793;52.690;6.812;2023-04-06T03:25:23;11.10;;;7.57;;
52918;SDS011;38793;52.690;6.812;2023-04-06T03:27:49;11.00;;;7.30;;
52918;SDS011;38793;52.690;6.812;2023-04-06T03:30:15;9.90;;;7.87;;
52918;SDS011;38793;52.690;6.812;2023-04-06T03:32:44;12.63;;;7.85;;
52918;SDS011;38793;52.690;6.812;2023-04-06T03:35:10;9.45;;;8.27;;
52918;SDS011;38793;52.690;6.812;2023-04-06T03:37:35;9.87;;;7.63;;
52918;SDS011;38793;52.690;6.812;2023-04-06T03:40:01;10.37;;;8.50;;
52918;SDS011;38793;52.690;6.812;2023-04-06T03:42:27;11.30;;;8.45;;
52918;SDS011;38793;52.690;6.812;2023-04-06T03:44:53;13.53;;;7.60;;
52918;SDS011;38793;52.690;6.812;2023-04-06T03:47:19;10.77;;;8.53;;
52918;SDS011;38793;52.690;6.812;2023-04-06T03:49:44;11.17;;;8.60;;
52918;SDS011;38793;52.690;6.812;2023-04-06T03:52:10;9.47;;;8.27;;
52918;SDS011;38793;52.690;6.812;2023-04-06T03:54:36;12.85;;;8.65;;
52918;SDS011;38793;52.690;6.812;2023-04-06T03:57:01;11.37;;;8.13;;
52918;SDS011;38793;52.690;6.812;2023-04-06T03:59:27;12.23;;;7.87;;
52918;SDS011;38793;52.690;6.812;2023-04-06T04:01:53;14.27;;;9.43;;
52918;SDS011;38793;52.690;6.812;2023-04-06T04:04:18;9.97;;;8.77;;
52918;SDS011;38793;52.690;6.812;2023-04-06T04:06:44;11.87;;;9.67;;
52918;SDS011;38793;52.690;6.812;2023-04-06T04:09:10;9.75;;;8.48;;
52918;SDS011;38793;52.690;6.812;2023-04-06T04:11:35;10.13;;;8.87;;
52918;SDS011;38793;52.690;6.812;2023-04-06T04:14:01;10.43;;;8.33;;
52918;SDS011;38793;52.690;6.812;2023-04-06T04:16:26;10.67;;;9.50;;
52918;SDS011;38793;52.690;6.812;2023-04-06T04:18:52;13.00;;;9.17;;
52918;SDS011;38793;52.690;6.812;2023-04-06T04:21:18;10.93;;;9.20;;
52918;SDS011;38793;52.690;6.812;2023-04-06T04:23:43;14.40;;;9.27;;
52918;SDS011;38793;52.690;6.812;2023-04-06T04:26:09;10.30;;;9.20;;
52918;SDS011;38793;52.690;6.812;2023-04-06T04:28:35;11.85;;;8.55;;
52918;SDS011;38793;52.690;6.812;2023-04-06T04:31:00;10.53;;;8.67;;
52918;SDS011;38793;52.690;6.812;2023-04-06T04:33:26;12.50;;;10.47;;
52918;SDS011;38793;52.690;6.812;2023-04-06T04:35:51;13.33;;;10.20;;
52918;SDS011;38793;52.690;6.812;2023-04-06T04:38:17;10.80;;;9.30;;
52918;SDS011;38793;52.690;6.812;2023-04-06T04:40:43;14.82;;;10.05;;
52918;SDS011;38793;52.690;6.812;2023-04-06T04:43:08;11.53;;;9.20;;
52918;SDS011;38793;52.690;6.812;2023-04-06T04:45:34;10.23;;;8.40;;
52918;SDS011;38793;52.690;6.812;2023-04-06T04:48:00;9.83;;;8.20;;
52918;SDS011;38793;52.690;6.812;2023-04-06T04:50:25;13.10;;;9.57;;
52918;SDS011;38793;52.690;6.812;2023-04-06T04:52:51;15.63;;;10.00;;
52918;SDS011;38793;52.690;6.812;2023-04-06T04:55:16;14.60;;;9.43;;
52918;SDS011;38793;52.690;6.812;2023-04-06T04:57:42;15.80;;;9.73;;
52918;SDS011;38793;52.690;6.812;2023-04-06T05:00:08;12.80;;;9.70;;
52918;SDS011;38793;52.690;6.812;2023-04-06T05:02:34;9.85;;;8.85;;
52918;SDS011;38793;52.690;6.812;2023-04-06T05:05:00;11.10;;;9.10;;
52918;SDS011;38793;52.690;6.812;2023-04-06T05:07:26;13.03;;;9.73;;
52918;SDS011;38793;52.690;6.812;2023-04-06T05:09:51;12.47;;;9.87;;
52918;SDS011;38793;52.690;6.812;2023-04-06T05:12:18;11.53;;;8.40;;
52918;SDS011;38793;52.690;6.812;2023-04-06T05:14:44;13.20;;;9.15;;
52918;SDS011;38793;52.690;6.812;2023-04-06T05:17:10;11.40;;;9.35;;
52918;SDS011;38793;52.690;6.812;2023-04-06T05:19:36;15.50;;;10.00;;
52918;SDS011;38793;52.690;6.812;2023-04-06T05:22:01;11.73;;;9.90;;
52918;SDS011;38793;52.690;6.812;2023-04-06T05:24:27;12.97;;;9.33;;
52918;SDS011;38793;52.690;6.812;2023-04-06T05:26:53;14.83;;;9.90;;
52918;SDS011;38793;52.690;6.812;2023-04-06T05:29:18;12.87;;;9.93;;
52918;SDS011;38793;52.690;6.812;2023-04-06T05:34:10;12.80;;;10.75;;
52918;SDS011;38793;52.690;6.812;2023-04-06T05:39:03;13.38;;;9.95;;
52918;SDS011;38793;52.690;6.812;2023-04-06T05:41:28;18.47;;;10.93;;
52918;SDS011;38793;52.690;6.812;2023-04-06T05:43:54;15.07;;;10.30;;
52918;SDS011;38793;52.690;6.812;2023-04-06T05:46:20;18.08;;;10.90;;
52918;SDS011;38793;52.690;6.812;2023-04-06T05:48:46;14.33;;;10.77;;
52918;SDS011;38793;52.690;6.812;2023-04-06T05:51:11;12.20;;;10.43;;
52918;SDS011;38793;52.690;6.812;2023-04-06T05:53:37;16.30;;;10.77;;
52918;SDS011;38793;52.690;6.812;2023-04-06T05:56:03;15.73;;;11.57;;
52918;SDS011;38793;52.690;6.812;2023-04-06T05:58:29;15.20;;;10.77;;
52918;SDS011;38793;52.690;6.812;2023-04-06T06:00:58;12.90;;;10.50;;
52918;SDS011;38793;52.690;6.812;2023-04-06T06:03:24;17.50;;;10.60;;
52918;SDS011;38793;52.690;6.812;2023-04-06T06:05:50;12.63;;;11.30;;
52918;SDS011;38793;52.690;6.812;2023-04-06T06:08:16;12.97;;;10.30;;
52918;SDS011;38793;52.690;6.812;2023-04-06T06:10:41;16.87;;;12.17;;
52918;SDS011;38793;52.690;6.812;2023-04-06T06:13:07;14.70;;;11.15;;
52918;SDS011;38793;52.690;6.812;2023-04-06T06:15:33;17.73;;;12.20;;
52918;SDS011;38793;52.690;6.812;2023-04-06T06:17:59;14.27;;;11.00;;
52918;SDS011;38793;52.690;6.812;2023-04-06T06:20:25;16.00;;;11.13;;
52918;SDS011;38793;52.690;6.812;2023-04-06T06:22:51;14.20;;;12.27;;
52918;SDS011;38793;52.690;6.812;2023-04-06T06:25:17;11.80;;;10.15;;
52918;SDS011;38793;52.690;6.812;2023-04-06T06:27:43;28.45;;;12.40;;
52918;SDS011;38793;52.690;6.812;2023-04-06T06:30:09;15.95;;;11.52;;
52918;SDS011;38793;52.690;6.812;2023-04-06T06:32:34;15.73;;;11.40;;
52918;SDS011;38793;52.690;6.812;2023-04-06T06:35:00;16.33;;;12.63;;
52918;SDS011;38793;52.690;6.812;2023-04-06T06:37:26;14.10;;;12.13;;
52918;SDS011;38793;52.690;6.812;2023-04-06T06:39:51;16.27;;;12.33;;
52918;SDS011;38793;52.690;6.812;2023-04-06T06:42:17;19.13;;;12.83;;
52918;SDS011;38793;52.690;6.812;2023-04-06T06:47:09;15.38;;;11.90;;
52918;SDS011;38793;52.690;6.812;2023-04-06T06:49:35;15.80;;;13.77;;
52918;SDS011;38793;52.690;6.812;2023-04-06T06:52:01;18.20;;;13.47;;
52918;SDS011;38793;52.690;6.812;2023-04-06T06:54:26;14.53;;;12.43;;
52918;SDS011;38793;52.690;6.812;2023-04-06T06:56:52;19.33;;;13.77;;
52918;SDS011;38793;52.690;6.812;2023-04-06T06:59:19;15.55;;;12.38;;
52918;SDS011;38793;52.690;6.812;2023-04-06T07:01:46;15.70;;;12.38;;
52918;SDS011;38793;52.690;6.812;2023-04-06T07:04:11;17.00;;;12.60;;
52918;SDS011;38793;52.690;6.812;2023-04-06T07:06:37;20.27;;;12.73;;
52918;SDS011;38793;52.690;6.812;2023-04-06T07:09:02;16.23;;;12.90;;
52918;SDS011;38793;52.690;6.812;2023-04-06T07:11:29;20.80;;;12.63;;
52918;SDS011;38793;52.690;6.812;2023-04-06T07:16:20;15.68;;;12.25;;
52918;SDS011;38793;52.690;6.812;2023-04-06T07:18:46;16.45;;;14.25;;
52918;SDS011;38793;52.690;6.812;2023-04-06T07:21:12;20.50;;;14.07;;
52918;SDS011;38793;52.690;6.812;2023-04-06T07:23:37;19.33;;;12.70;;
52918;SDS011;38793;52.690;6.812;2023-04-06T07:26:03;15.63;;;12.27;;
52918;SDS011;38793;52.690;6.812;2023-04-06T07:28:29;18.97;;;12.73;;
52918;SDS011;38793;52.690;6.812;2023-04-06T07:30:54;15.60;;;13.60;;
52918;SDS011;38793;52.690;6.812;2023-04-06T07:33:20;17.63;;;14.23;;
52918;SDS011;38793;52.690;6.812;2023-04-06T07:35:46;22.93;;;14.50;;
52918;SDS011;38793;52.690;6.812;2023-04-06T07:38:11;18.00;;;13.70;;
52918;SDS011;38793;52.690;6.812;2023-04-06T07:40:37;17.52;;;12.45;;
52918;SDS011;38793;52.690;6.812;2023-04-06T07:43:02;17.37;;;12.90;;
52918;SDS011;38793;52.690;6.812;2023-04-06T07:45:28;19.73;;;12.93;;
52918;SDS011;38793;52.690;6.812;2023-04-06T07:47:54;14.52;;;11.93;;
52918;SDS011;38793;52.690;6.812;2023-04-06T07:50:20;17.30;;;13.55;;
52918;SDS011;38793;52.690;6.812;2023-04-06T07:52:46;16.20;;;12.73;;
52918;SDS011;38793;52.690;6.812;2023-04-06T07:55:11;18.33;;;13.02;;
52918;SDS011;38793;52.690;6.812;2023-04-06T07:57:37;18.50;;;13.47;;
52918;SDS011;38793;52.690;6.812;2023-04-06T08:00:03;21.20;;;14.30;;
52918;SDS011;38793;52.690;6.812;2023-04-06T08:02:29;18.60;;;13.02;;
52918;SDS011;38793;52.690;6.812;2023-04-06T08:04:56;19.45;;;13.90;;
52918;SDS011;38793;52.690;6.812;2023-04-06T08:07:22;16.93;;;13.03;;
52918;SDS011;38793;52.690;6.812;2023-04-06T08:09:47;14.70;;;12.30;;
52918;SDS011;38793;52.690;6.812;2023-04-06T08:12:13;17.37;;;12.57;;
52918;SDS011;38793;52.690;6.812;2023-04-06T08:14:40;15.15;;;13.55;;
52918;SDS011;38793;52.690;6.812;2023-04-06T08:17:05;16.27;;;13.83;;
52918;SDS011;38793;52.690;6.812;2023-04-06T08:19:31;19.90;;;13.43;;
52918;SDS011;38793;52.690;6.812;2023-04-06T08:21:56;18.37;;;12.93;;
52918;SDS011;38793;52.690;6.812;2023-04-06T08:24:22;17.07;;;13.33;;
52918;SDS011;38793;52.690;6.812;2023-04-06T08:26:48;19.43;;;14.47;;
52918;SDS011;38793;52.690;6.812;2023-04-06T08:29:13;17.30;;;14.27;;
52918;SDS011;38793;52.690;6.812;2023-04-06T08:31:39;17.97;;;13.47;;
52918;SDS011;38793;52.690;6.812;2023-04-06T08:34:05;17.52;;;13.63;;
52918;SDS011;38793;52.690;6.812;2023-04-06T08:38:59;18.10;;;13.05;;
52918;SDS011;38793;52.690;6.812;2023-04-06T08:41:25;22.95;;;13.88;;
52918;SDS011;38793;52.690;6.812;2023-04-06T08:43:58;19.20;;;13.63;;
52918;SDS011;38793;52.690;6.812;2023-04-06T08:46:25;20.88;;;12.70;;
52918;SDS011;38793;52.690;6.812;2023-04-06T08:48:55;17.73;;;12.90;;
52918;SDS011;38793;52.690;6.812;2023-04-06T08:51:22;20.50;;;13.38;;
52918;SDS011;38793;52.690;6.812;2023-04-06T08:53:50;16.50;;;12.55;;
52918;SDS011;38793;52.690;6.812;2023-04-06T08:56:16;21.67;;;13.32;;
52918;SDS011;38793;52.690;6.812;2023-04-06T08:58:42;21.42;;;14.25;;
52918;SDS011;38793;52.690;6.812;2023-04-06T09:01:11;19.90;;;14.48;;
52918;SDS011;38793;52.690;6.812;2023-04-06T09:04:35;20.60;;;14.15;;
52918;SDS011;38793;52.690;6.812;2023-04-06T09:07:02;25.30;;;15.40;;
52918;SDS011;38793;52.690;6.812;2023-04-06T09:09:27;29.90;;;14.70;;
52918;SDS011;38793;52.690;6.812;2023-04-06T09:11:53;20.10;;;15.33;;
52918;SDS011;38793;52.690;6.812;2023-04-06T09:14:35;19.70;;;15.20;;
52918;SDS011;38793;52.690;6.812;2023-04-06T09:17:02;19.55;;;14.30;;
52918;SDS011;38793;52.690;6.812;2023-04-06T09:19:28;278.88;;;37.17;;
52918;SDS011;38793;52.690;6.812;2023-04-06T09:22:03;94.07;;;22.53;;
52918;SDS011;38793;52.690;6.812;2023-04-06T09:24:39;20.40;;;14.75;;
52918;SDS011;38793;52.690;6.812;2023-04-06T09:27:06;22.95;;;16.10;;
52918;SDS011;38793;52.690;6.812;2023-04-06T09:29:32;21.03;;;16.13;;
52918;SDS011;38793;52.690;6.812;2023-04-06T09:32:02;21.92;;;15.25;;
52918;SDS011;38793;52.690;6.812;2023-04-06T09:34:29;20.48;;;16.13;;
52918;SDS011;38793;52.690;6.812;2023-04-06T09:36:55;22.08;;;16.15;;
52918;SDS011;38793;52.690;6.812;2023-04-06T09:39:21;21.77;;;16.80;;
52918;SDS011;38793;52.690;6.812;2023-04-06T09:41:50;21.08;;;16.10;;
52918;SDS011;38793;52.690;6.812;2023-04-06T09:44:16;20.85;;;15.77;;
52918;SDS011;38793;52.690;6.812;2023-04-06T09:46:44;23.93;;;16.03;;
52918;SDS011;38793;52.690;6.812;2023-04-06T09:49:11;24.42;;;16.00;;
52918;SDS011;38793;52.690;6.812;2023-04-06T09:51:38;24.13;;;16.45;;
52918;SDS011;38793;52.690;6.812;2023-04-06T09:54:15;17.05;;;14.45;;
52918;SDS011;38793;52.690;6.812;2023-04-06T09:56:45;21.23;;;15.45;;
52918;SDS011;38793;52.690;6.812;2023-04-06T10:05:09;21.55;;;16.25;;
52918;SDS011;38793;52.690;6.812;2023-04-06T10:07:44;20.67;;;14.45;;
52918;SDS011;38793;52.690;6.812;2023-04-06T10:10:11;26.33;;;15.98;;
52918;SDS011;38793;52.690;6.812;2023-04-06T10:12:39;24.23;;;16.17;;
52918;SDS011;38793;52.690;6.812;2023-04-06T10:15:05;21.17;;;14.85;;
52918;SDS011;38793;52.690;6.812;2023-04-06T10:17:32;23.25;;;15.98;;
52918;SDS011;38793;52.690;6.812;2023-04-06T10:20:00;24.43;;;15.23;;
52918;SDS011;38793;52.690;6.812;2023-04-06T10:22:36;28.67;;;15.35;;
52918;SDS011;38793;52.690;6.812;2023-04-06T10:25:08;22.05;;;16.00;;
52918;SDS011;38793;52.690;6.812;2023-04-06T10:27:34;19.88;;;14.98;;
52918;SDS011;38793;52.690;6.812;2023-04-06T10:30:01;25.33;;;17.17;;
52918;SDS011;38793;52.690;6.812;2023-04-06T10:32:38;21.35;;;16.83;;
52918;SDS011;38793;52.690;6.812;2023-04-06T10:35:08;19.98;;;15.93;;
52918;SDS011;38793;52.690;6.812;2023-04-06T10:37:50;22.75;;;17.52;;
52918;SDS011;38793;52.690;6.812;2023-04-06T10:40:24;21.50;;;17.25;;
52918;SDS011;38793;52.690;6.812;2023-04-06T10:42:51;24.45;;;18.52;;
52918;SDS011;38793;52.690;6.812;2023-04-06T10:45:22;22.83;;;17.90;;
52918;SDS011;38793;52.690;6.812;2023-04-06T10:47:49;24.85;;;19.45;;
52918;SDS011;38793;52.690;6.812;2023-04-06T10:50:18;30.63;;;19.88;;
52918;SDS011;38793;52.690;6.812;2023-04-06T10:52:45;25.25;;;18.52;;
52918;SDS011;38793;52.690;6.812;2023-04-06T10:55:11;29.58;;;20.77;;
52918;SDS011;38793;52.690;6.812;2023-04-06T10:57:39;31.15;;;19.17;;
52918;SDS011;38793;52.690;6.812;2023-04-06T11:00:06;25.90;;;19.15;;
52918;SDS011;38793;52.690;6.812;2023-04-06T11:02:33;23.52;;;19.45;;
52918;SDS011;38793;52.690;6.812;2023-04-06T11:04:59;31.90;;;22.08;;
52918;SDS011;38793;52.690;6.812;2023-04-06T11:07:26;30.58;;;22.77;;
52918;SDS011;38793;52.690;6.812;2023-04-06T11:09:52;24.98;;;20.23;;
52918;SDS011;38793;52.690;6.812;2023-04-06T11:12:22;27.25;;;21.60;;
52918;SDS011;38793;52.690;6.812;2023-04-06T11:14:53;27.83;;;22.08;;
52918;SDS011;38793;52.690;6.812;2023-04-06T11:17:29;26.50;;;21.13;;
52918;SDS011;38793;52.690;6.812;2023-04-06T11:19:56;30.98;;;22.48;;
52918;SDS011;38793;52.690;6.812;2023-04-06T11:22:22;28.40;;;21.25;;
52918;SDS011;38793;52.690;6.812;2023-04-06T11:24:48;30.50;;;22.38;;
52918;SDS011;38793;52.690;6.812;2023-04-06T11:27:14;29.95;;;21.27;;
52918;SDS011;38793;52.690;6.812;2023-04-06T11:29:41;28.17;;;20.73;;
52918;SDS011;38793;52.690;6.812;2023-04-06T11:32:07;27.73;;;22.27;;
52918;SDS011;38793;52.690;6.812;2023-04-06T11:34:34;28.77;;;21.00;;
52918;SDS011;38793;52.690;6.812;2023-04-06T11:37:08;28.67;;;22.00;;
52918;SDS011;38793;52.690;6.812;2023-04-06T11:39:54;30.00;;;22.50;;
52918;SDS011;38793;52.690;6.812;2023-04-06T11:42:28;30.38;;;22.17;;
52918;SDS011;38793;52.690;6.812;2023-04-06T11:44:57;32.28;;;21.33;;
52918;SDS011;38793;52.690;6.812;2023-04-06T11:47:27;31.27;;;23.23;;
52918;SDS011;38793;52.690;6.812;2023-04-06T11:49:54;33.25;;;22.38;;
52918;SDS011;38793;52.690;6.812;2023-04-06T11:52:21;38.13;;;23.83;;
52918;SDS011;38793;52.690;6.812;2023-04-06T11:54:49;30.55;;;23.45;;
52918;SDS011;38793;52.690;6.812;2023-04-06T11:57:17;33.20;;;22.23;;
52918;SDS011;38793;52.690;6.812;2023-04-06T11:59:44;29.55;;;21.58;;
52918;SDS011;38793;52.690;6.812;2023-04-06T12:02:10;30.40;;;23.08;;
52918;SDS011;38793;52.690;6.812;2023-04-06T12:04:36;30.75;;;21.83;;
52918;SDS011;38793;52.690;6.812;2023-04-06T12:07:02;31.50;;;22.30;;
52918;SDS011;38793;52.690;6.812;2023-04-06T12:09:29;29.30;;;21.92;;
52918;SDS011;38793;52.690;6.812;2023-04-06T12:11:55;34.55;;;23.73;;
52918;SDS011;38793;52.690;6.812;2023-04-06T12:14:21;33.97;;;21.70;;
52918;SDS011;38793;52.690;6.812;2023-04-06T12:16:47;29.67;;;22.27;;
52918;SDS011;38793;52.690;6.812;2023-04-06T12:19:13;32.13;;;22.23;;
52918;SDS011;38793;52.690;6.812;2023-04-06T12:21:39;35.65;;;21.98;;
52918;SDS011;38793;52.690;6.812;2023-04-06T12:24:05;29.25;;;21.77;;
52918;SDS011;38793;52.690;6.812;2023-04-06T12:26:31;28.95;;;21.38;;
52918;SDS011;38793;52.690;6.812;2023-04-06T12:29:00;29.63;;;22.23;;
52918;SDS011;38793;52.690;6.812;2023-04-06T12:31:31;28.90;;;21.75;;
52918;SDS011;38793;52.690;6.812;2023-04-06T12:33:58;29.88;;;20.70;;
52918;SDS011;38793;52.690;6.812;2023-04-06T12:36:23;29.80;;;22.17;;
52918;SDS011;38793;52.690;6.812;2023-04-06T12:38:50;29.45;;;22.10;;
52918;SDS011;38793;52.690;6.812;2023-04-06T12:43:42;24.98;;;21.00;;
52918;SDS011;38793;52.690;6.812;2023-04-06T12:48:35;31.45;;;20.65;;
52918;SDS011;38793;52.690;6.812;2023-04-06T12:53:28;31.45;;;20.58;;
52918;SDS011;38793;52.690;6.812;2023-04-06T12:55:54;25.88;;;19.42;;
52918;SDS011;38793;52.690;6.812;2023-04-06T12:58:20;26.45;;;21.20;;
52918;SDS011;38793;52.690;6.812;2023-04-06T13:00:47;33.35;;;20.35;;
52918;SDS011;38793;52.690;6.812;2023-04-06T13:05:48;23.40;;;18.20;;
52918;SDS011;38793;52.690;6.812;2023-04-06T13:08:15;24.48;;;18.23;;
52918;SDS011;38793;52.690;6.812;2023-04-06T13:10:46;24.83;;;17.85;;
52918;SDS011;38793;52.690;6.812;2023-04-06T13:13:13;24.88;;;18.63;;
52918;SDS011;38793;52.690;6.812;2023-04-06T13:15:43;28.63;;;18.67;;
52918;SDS011;38793;52.690;6.812;2023-04-06T13:18:10;25.23;;;17.73;;
52918;SDS011;38793;52.690;6.812;2023-04-06T13:20:36;25.58;;;18.15;;
52918;SDS011;38793;52.690;6.812;2023-04-06T13:23:02;28.55;;;19.08;;
52918;SDS011;38793;52.690;6.812;2023-04-06T13:25:27;29.27;;;18.10;;
52918;SDS011;38793;52.690;6.812;2023-04-06T13:27:54;26.20;;;19.58;;
52918;SDS011;38793;52.690;6.812;2023-04-06T13:30:20;27.02;;;19.33;;
52918;SDS011;38793;52.690;6.812;2023-04-06T13:32:46;28.98;;;17.85;;
52918;SDS011;38793;52.690;6.812;2023-04-06T13:35:11;25.73;;;19.90;;
52918;SDS011;38793;52.690;6.812;2023-04-06T13:37:37;26.93;;;20.03;;
52918;SDS011;38793;52.690;6.812;2023-04-06T13:40:03;30.02;;;20.30;;
52918;SDS011;38793;52.690;6.812;2023-04-06T13:42:30;31.75;;;21.15;;
52918;SDS011;38793;52.690;6.812;2023-04-06T13:47:22;33.63;;;21.17;;
52918;SDS011;38793;52.690;6.812;2023-04-06T13:49:49;28.42;;;20.05;;
52918;SDS011;38793;52.690;6.812;2023-04-06T13:52:16;28.27;;;20.50;;
52918;SDS011;38793;52.690;6.812;2023-04-06T13:54:41;29.25;;;20.85;;
52918;SDS011;38793;52.690;6.812;2023-04-06T13:57:07;30.93;;;20.70;;
52918;SDS011;38793;52.690;6.812;2023-04-06T13:59:33;24.73;;;19.13;;
52918;SDS011;38793;52.690;6.812;2023-04-06T14:02:00;23.95;;;18.48;;
52918;SDS011;38793;52.690;6.812;2023-04-06T14:04:30;26.88;;;18.02;;
52918;SDS011;38793;52.690;6.812;2023-04-06T14:06:57;24.63;;;18.33;;
52918;SDS011;38793;52.690;6.812;2023-04-06T14:09:23;26.30;;;17.98;;
52918;SDS011;38793;52.690;6.812;2023-04-06T14:11:49;24.65;;;17.85;;
52918;SDS011;38793;52.690;6.812;2023-04-06T14:14:15;23.85;;;17.88;;
52918;SDS011;38793;52.690;6.812;2023-04-06T14:21:39;21.02;;;15.60;;
52918;SDS011;38793;52.690;6.812;2023-04-06T14:24:07;21.67;;;16.90;;
52918;SDS011;38793;52.690;6.812;2023-04-06T14:26:34;25.85;;;18.42;;
52918;SDS011;38793;52.690;6.812;2023-04-06T14:29:00;23.48;;;17.15;;
52918;SDS011;38793;52.690;6.812;2023-04-06T14:33:52;22.58;;;16.55;;
52918;SDS011;38793;52.690;6.812;2023-04-06T14:36:18;25.17;;;16.20;;
52918;SDS011;38793;52.690;6.812;2023-04-06T14:38:44;18.70;;;13.60;;
52918;SDS011;38793;52.690;6.812;2023-04-06T14:41:18;18.50;;;14.18;;
52918;SDS011;38793;52.690;6.812;2023-04-06T14:43:47;17.80;;;13.05;;
52918;SDS011;38793;52.690;6.812;2023-04-06T14:46:13;17.52;;;13.68;;
52918;SDS011;38793;52.690;6.812;2023-04-06T14:48:40;18.00;;;11.52;;
52918;SDS011;38793;52.690;6.812;2023-04-06T14:51:06;14.65;;;11.85;;
52918;SDS011;38793;52.690;6.812;2023-04-06T14:53:32;14.60;;;11.75;;
52918;SDS011;38793;52.690;6.812;2023-04-06T14:55:58;18.60;;;12.05;;
52918;SDS011;38793;52.690;6.812;2023-04-06T14:58:24;17.08;;;12.52;;
52918;SDS011;38793;52.690;6.812;2023-04-06T15:00:55;15.90;;;12.45;;
52918;SDS011;38793;52.690;6.812;2023-04-06T15:03:22;14.77;;;12.05;;
52918;SDS011;38793;52.690;6.812;2023-04-06T15:05:50;14.30;;;11.35;;
52918;SDS011;38793;52.690;6.812;2023-04-06T15:08:16;16.30;;;12.13;;